createdAt,value
2017-07-18T00:00:11.019Z,65.90
2017-07-18T00:02:38.464Z,66.73
2017-07-18T00:05:05.886Z,67.39
2017-07-18T00:07:33.639Z,66.19
2017-07-18T00:10:01.074Z,67.11
2017-07-18T00:12:28.479Z,66.57
2017-07-18T00:14:56.411Z,67.00
2017-07-18T00:17:23.827Z,66.93
2017-07-18T00:19:51.246Z,67.33
2017-07-18T00:22:19.003Z,67.41
2017-07-18T00:24:46.432Z,67.55
2017-07-18T00:27:13.850Z,67.41
2017-07-18T00:29:41.622Z,67.79
2017-07-18T00:32:09.038Z,67.79
2017-07-18T00:34:36.500Z,68.01
2017-07-18T00:37:05.243Z,67.72
2017-07-18T00:39:32.649Z,67.56
2017-07-18T00:42:00.072Z,67.41
2017-07-18T00:44:27.538Z,67.36
2017-07-18T00:46:54.958Z,67.54
2017-07-18T00:49:22.390Z,68.15
2017-07-18T00:51:49.842Z,67.67
2017-07-18T00:54:18.365Z,68.07
2017-07-18T00:56:45.791Z,68.31
2017-07-18T00:59:13.436Z,67.94
2017-07-18T01:01:40.863Z,68.32
2017-07-18T01:04:08.317Z,68.36
2017-07-18T01:06:36.107Z,68.97
2017-07-18T01:09:03.539Z,68.93
2017-07-18T01:11:30.959Z,68.87
2017-07-18T01:13:58.678Z,68.93
2017-07-18T01:16:26.114Z,69.02
2017-07-18T01:18:53.523Z,68.55
2017-07-18T01:21:21.246Z,68.84
2017-07-18T01:23:48.675Z,68.97
2017-07-18T01:26:16.083Z,68.87
2017-07-18T01:28:43.571Z,69.35
2017-07-18T01:31:10.991Z,69.71
2017-07-18T01:33:38.414Z,69.73
2017-07-18T01:36:05.890Z,69.11
2017-07-18T01:38:33.319Z,70.56
2017-07-18T01:41:00.747Z,69.63
2017-07-18T01:43:28.330Z,69.79
2017-07-18T01:45:55.750Z,69.99
2017-07-18T01:48:23.168Z,70.56
2017-07-18T01:50:50.644Z,70.25
2017-07-18T01:53:18.070Z,70.36
2017-07-18T01:55:45.499Z,70.70
2017-07-18T01:58:13.130Z,70.84
2017-07-18T02:00:40.547Z,70.87
2017-07-18T02:03:07.971Z,71.17
2017-07-18T02:05:35.415Z,70.98
2017-07-18T02:08:02.827Z,71.56
2017-07-18T02:10:30.248Z,71.18
2017-07-18T02:12:57.690Z,71.76
2017-07-18T02:15:25.118Z,71.53
2017-07-18T02:17:52.563Z,71.62
2017-07-18T02:20:20.246Z,72.07
2017-07-18T02:22:47.656Z,71.78
2017-07-18T02:25:15.076Z,71.64
2017-07-18T02:27:42.998Z,71.52
2017-07-18T02:32:37.418Z,71.14
2017-07-18T02:35:05.007Z,71.21
2017-07-18T02:37:32.428Z,71.06
2017-07-18T02:39:59.851Z,71.63
2017-07-18T02:42:27.443Z,71.53
2017-07-18T02:44:54.860Z,71.62
2017-07-18T02:47:22.280Z,71.35
2017-07-18T02:49:49.805Z,71.53
2017-07-18T02:52:17.220Z,71.98
2017-07-18T02:54:44.646Z,73.15
2017-07-18T02:57:12.217Z,72.97
2017-07-18T02:59:39.668Z,72.85
2017-07-18T03:02:07.088Z,73.71
2017-07-18T03:04:34.514Z,74.75
2017-07-18T03:07:01.936Z,75.04
2017-07-18T03:09:29.355Z,75.68
2017-07-18T03:11:56.798Z,75.39
2017-07-18T03:14:24.212Z,76.29
2017-07-18T03:16:51.635Z,76.30
2017-07-18T03:19:19.105Z,76.37
2017-07-18T03:21:46.536Z,76.67
2017-07-18T03:24:25.997Z,76.88
2017-07-18T03:26:53.428Z,77.04
2017-07-18T03:29:20.859Z,77.18
2017-07-18T03:31:48.388Z,77.56
2017-07-18T03:34:15.807Z,77.71
2017-07-18T03:36:43.231Z,78.05
2017-07-18T03:39:10.771Z,78.03
2017-07-18T03:41:38.186Z,78.15
2017-07-18T03:44:05.595Z,78.36
2017-07-18T03:46:33.027Z,78.74
2017-07-18T03:49:00.443Z,79.04
2017-07-18T03:51:27.862Z,79.22
2017-07-18T03:53:55.308Z,79.57
2017-07-18T03:56:22.736Z,79.85
2017-07-18T03:58:50.143Z,80.26
2017-07-18T04:01:17.669Z,80.54
2017-07-18T04:03:45.078Z,80.44
2017-07-18T04:06:14.492Z,80.07
2017-07-18T04:08:41.925Z,80.29
2017-07-18T04:11:09.340Z,80.29
2017-07-18T04:13:36.746Z,80.40
2017-07-18T04:16:04.216Z,80.45
2017-07-18T04:18:31.639Z,80.75
2017-07-18T04:20:59.054Z,81.10
2017-07-18T04:23:26.483Z,81.32
2017-07-18T04:25:53.887Z,81.43
2017-07-18T04:28:21.303Z,81.39
2017-07-18T04:30:48.978Z,81.39
2017-07-18T04:33:16.386Z,81.33
2017-07-18T04:35:43.794Z,81.38
2017-07-18T04:38:11.583Z,81.37
2017-07-18T04:40:38.983Z,81.30
2017-07-18T04:43:06.399Z,81.52
2017-07-18T04:45:33.836Z,81.76
2017-07-18T04:48:01.242Z,81.48
2017-07-18T04:50:28.659Z,80.78
2017-07-18T04:52:56.094Z,80.52
2017-07-18T04:55:23.502Z,80.66
2017-07-18T04:57:50.936Z,79.88
2017-07-18T05:00:18.427Z,79.63
2017-07-18T05:02:45.838Z,79.46
2017-07-18T05:05:13.250Z,78.90
2017-07-18T05:07:41.043Z,78.70
2017-07-18T05:10:08.454Z,78.71
2017-07-18T05:12:35.871Z,78.86
2017-07-18T05:15:03.336Z,78.89
2017-07-18T05:17:30.747Z,79.04
2017-07-18T05:19:58.159Z,78.85
2017-07-18T05:22:25.935Z,78.88
2017-07-18T05:24:53.346Z,79.12
2017-07-18T05:27:20.750Z,79.41
2017-07-18T05:29:48.285Z,79.37
2017-07-18T05:32:15.709Z,79.18
2017-07-18T05:34:43.114Z,78.86
2017-07-18T05:37:10.959Z,78.63
2017-07-18T05:39:38.377Z,78.02
2017-07-18T05:42:05.794Z,77.60
2017-07-18T05:44:33.374Z,77.65
2017-07-18T05:47:00.783Z,77.62
2017-07-18T05:49:28.222Z,77.81
2017-07-18T05:51:56.143Z,76.69
2017-07-18T05:54:23.557Z,75.84
2017-07-18T05:56:50.988Z,75.72
2017-07-18T05:59:18.554Z,75.52
2017-07-18T06:01:45.967Z,75.07
2017-07-18T06:04:13.427Z,74.78
2017-07-18T06:06:41.419Z,74.44
2017-07-18T06:09:08.875Z,74.19
2017-07-18T06:11:36.319Z,74.53
2017-07-18T06:14:04.087Z,74.29
2017-07-18T06:16:31.533Z,74.01
2017-07-18T06:18:58.962Z,73.62
2017-07-18T06:21:26.838Z,73.93
2017-07-18T06:23:54.250Z,73.43
2017-07-18T06:26:21.673Z,73.54
2017-07-18T06:28:49.208Z,72.93
2017-07-18T06:31:16.660Z,72.84
2017-07-18T06:33:44.170Z,74.08
2017-07-18T06:36:11.756Z,73.75
2017-07-18T06:38:39.169Z,72.64
2017-07-18T06:41:06.587Z,72.38
2017-07-18T06:43:34.154Z,71.84
2017-07-18T06:46:01.570Z,72.88
2017-07-18T06:48:28.988Z,69.95
2017-07-18T06:50:56.713Z,70.00
2017-07-18T06:53:24.141Z,69.28
2017-07-18T06:55:51.558Z,68.90
2017-07-18T06:58:19.043Z,67.93
2017-07-18T07:00:46.443Z,68.41
2017-07-18T07:03:13.847Z,68.04
2017-07-18T07:05:41.275Z,67.94
2017-07-18T07:08:08.678Z,67.38
2017-07-18T07:10:36.099Z,68.48
2017-07-18T07:13:04.407Z,68.28
2017-07-18T07:15:31.831Z,66.64
2017-07-18T07:17:59.242Z,66.84
2017-07-18T07:20:27.025Z,69.26
2017-07-18T07:22:54.479Z,65.04
2017-07-18T07:25:23.207Z,68.14
2017-07-18T07:27:50.620Z,67.91
2017-07-18T07:30:18.028Z,65.29
2017-07-18T07:32:45.438Z,67.88
2017-07-18T07:35:12.901Z,67.36
2017-07-18T07:37:40.315Z,67.05
2017-07-18T07:40:07.728Z,66.22
2017-07-18T07:42:35.604Z,62.66
2017-07-18T07:45:03.034Z,61.92
2017-07-18T07:47:31.227Z,62.03
2017-07-18T07:49:59.107Z,61.63
2017-07-18T07:52:26.526Z,62.03
2017-07-18T07:54:53.942Z,62.25
2017-07-18T07:57:21.384Z,63.45
2017-07-18T07:59:48.811Z,60.60
2017-07-18T08:02:16.218Z,59.19
2017-07-18T08:04:43.762Z,58.53
2017-07-18T08:07:11.223Z,58.03
2017-07-18T08:09:38.632Z,62.58
2017-07-18T08:12:06.233Z,59.12
2017-07-18T08:14:33.658Z,58.78
2017-07-18T08:17:01.062Z,58.24
2017-07-18T08:19:28.491Z,58.47
2017-07-18T08:21:56.874Z,55.99
2017-07-18T08:24:24.326Z,56.35
2017-07-18T08:26:51.939Z,56.50
2017-07-18T08:29:19.403Z,56.58
2017-07-18T08:31:46.814Z,55.48
2017-07-18T08:34:14.442Z,53.84
2017-07-18T08:36:41.845Z,56.79
2017-07-18T08:39:09.263Z,55.89
2017-07-18T08:41:36.794Z,55.21
2017-07-18T08:44:04.202Z,54.96
2017-07-18T08:46:31.610Z,56.69
2017-07-18T08:48:59.063Z,55.57
2017-07-18T08:51:26.498Z,56.46
2017-07-18T08:53:53.911Z,55.71
2017-07-18T08:56:21.341Z,53.75
2017-07-18T08:58:48.759Z,55.19
2017-07-18T09:01:16.167Z,54.95
2017-07-18T09:03:43.714Z,55.84
2017-07-18T09:06:11.123Z,53.57
2017-07-18T09:08:38.530Z,53.54
2017-07-18T09:11:06.103Z,51.55
2017-07-18T09:13:34.638Z,53.15
2017-07-18T09:16:02.054Z,52.92
2017-07-18T09:18:29.895Z,52.42
2017-07-18T09:20:57.310Z,52.85
2017-07-18T09:23:24.710Z,52.28
2017-07-18T09:25:52.238Z,50.58
2017-07-18T09:28:19.655Z,50.63
2017-07-18T09:30:47.067Z,51.01
2017-07-18T09:33:14.634Z,49.68
2017-07-18T09:35:42.043Z,51.53
2017-07-18T09:38:09.454Z,51.54
2017-07-18T09:40:37.053Z,52.11
2017-07-18T09:43:04.462Z,48.50
2017-07-18T09:45:31.878Z,48.66
2017-07-18T09:47:59.585Z,44.65
2017-07-18T09:50:27.008Z,48.58
2017-07-18T09:52:54.417Z,45.73
2017-07-18T09:55:22.171Z,44.24
2017-07-18T09:57:49.574Z,43.28
2017-07-18T10:00:16.982Z,41.99
2017-07-18T10:02:44.430Z,41.43
2017-07-18T10:05:11.837Z,44.79
2017-07-18T10:07:39.242Z,46.42
2017-07-18T10:10:06.816Z,45.13
2017-07-18T10:12:34.223Z,39.75
2017-07-18T10:15:01.630Z,40.54
2017-07-18T10:17:29.156Z,37.26
2017-07-18T10:19:56.563Z,40.80
2017-07-18T10:22:23.966Z,42.81
2017-07-18T10:24:51.855Z,39.65
2017-07-18T10:27:19.268Z,38.57
2017-07-18T10:29:46.679Z,38.24
2017-07-18T10:32:14.104Z,37.97
2017-07-18T10:34:41.514Z,36.10
2017-07-18T10:37:08.919Z,36.22
2017-07-18T10:39:36.351Z,37.77
2017-07-18T10:42:03.766Z,35.26
2017-07-18T10:44:31.169Z,32.37
2017-07-18T10:46:58.603Z,32.67
2017-07-18T10:49:26.016Z,36.66
2017-07-18T10:51:53.421Z,33.28
2017-07-18T10:54:20.842Z,32.16
2017-07-18T10:56:48.263Z,37.11
2017-07-18T10:59:15.695Z,36.51
2017-07-18T11:01:43.111Z,36.99
2017-07-18T11:04:10.523Z,35.25
2017-07-18T11:06:37.930Z,33.80
2017-07-18T11:09:05.678Z,28.01
2017-07-18T11:11:33.102Z,33.81
2017-07-18T11:14:00.511Z,31.82
2017-07-18T11:16:27.959Z,29.05
2017-07-18T11:18:55.382Z,28.37
2017-07-18T11:21:22.831Z,30.18
2017-07-18T11:23:50.345Z,31.46
2017-07-18T11:26:17.762Z,31.12
2017-07-18T11:28:45.198Z,31.46
2017-07-18T11:31:12.830Z,32.86
2017-07-18T11:33:40.262Z,36.40
2017-07-18T11:36:07.679Z,30.87
2017-07-18T11:38:44.802Z,30.70
2017-07-18T11:41:12.219Z,31.79
2017-07-18T11:43:39.623Z,33.50
2017-07-18T11:46:07.428Z,30.45
2017-07-18T11:48:34.843Z,32.81
2017-07-18T11:51:02.270Z,31.67
2017-07-18T11:53:30.676Z,33.48
2017-07-18T11:55:58.094Z,32.38
2017-07-18T11:58:25.523Z,32.08
2017-07-18T12:00:53.006Z,29.87
2017-07-18T12:03:20.426Z,28.88
2017-07-18T12:05:47.852Z,27.48
2017-07-18T12:08:15.505Z,28.72
2017-07-18T12:10:42.956Z,31.34
2017-07-18T12:13:10.391Z,31.99
2017-07-18T12:15:37.889Z,28.27
2017-07-18T12:18:05.342Z,32.13
2017-07-18T12:20:32.742Z,30.20
2017-07-18T12:23:00.327Z,31.93
2017-07-18T12:25:27.751Z,32.37
2017-07-18T12:27:55.156Z,31.90
2017-07-18T12:30:22.592Z,29.20
2017-07-18T12:32:50.022Z,31.46
2017-07-18T12:35:17.436Z,31.75
2017-07-18T12:37:44.899Z,32.32
2017-07-18T12:40:12.338Z,34.01
2017-07-18T12:42:39.770Z,32.58
2017-07-18T12:45:07.328Z,31.77
2017-07-18T12:47:34.745Z,33.47
2017-07-18T12:50:02.217Z,32.44
2017-07-18T12:52:29.771Z,31.25
2017-07-18T12:54:57.217Z,32.86
2017-07-18T12:57:24.631Z,31.61
2017-07-18T12:59:52.107Z,32.50
2017-07-18T13:02:19.529Z,33.51
2017-07-18T13:04:46.942Z,34.62
2017-07-18T13:07:14.525Z,32.48
2017-07-18T13:09:41.950Z,34.64
2017-07-18T13:12:09.361Z,32.50
2017-07-18T13:14:36.915Z,33.45
2017-07-18T13:17:04.559Z,35.51
2017-07-18T13:19:31.978Z,38.92
2017-07-18T13:21:59.474Z,35.31
2017-07-18T13:24:26.907Z,29.93
2017-07-18T13:26:54.319Z,31.49
2017-07-18T13:29:22.164Z,32.31
2017-07-18T13:31:49.583Z,32.25
2017-07-18T13:34:16.998Z,34.14
2017-07-18T13:36:44.802Z,34.36
2017-07-18T13:39:12.224Z,35.86
2017-07-18T13:41:39.641Z,34.14
2017-07-18T13:44:07.115Z,34.95
2017-07-18T13:46:34.540Z,35.23
2017-07-18T13:49:01.962Z,33.74
2017-07-18T13:51:29.559Z,35.45
2017-07-18T13:53:57.322Z,34.81
2017-07-18T13:56:24.762Z,33.11
2017-07-18T13:58:52.258Z,35.24
2017-07-18T14:01:19.724Z,35.35
2017-07-18T14:03:47.183Z,34.15
2017-07-18T14:06:15.790Z,33.19
2017-07-18T14:08:44.003Z,35.82
2017-07-18T14:11:12.314Z,38.87
2017-07-18T14:13:39.742Z,34.16
2017-07-18T14:16:07.170Z,33.77
2017-07-18T14:18:34.582Z,34.37
2017-07-18T14:21:02.063Z,33.47
2017-07-18T14:23:29.490Z,33.01
2017-07-18T14:25:56.906Z,34.67
2017-07-18T14:28:24.375Z,31.91
2017-07-18T14:30:51.804Z,35.86
2017-07-18T14:33:19.722Z,34.67
2017-07-18T14:35:47.255Z,34.28
2017-07-18T14:38:14.664Z,33.59
2017-07-18T14:40:42.110Z,33.04
2017-07-18T14:43:09.548Z,32.12
2017-07-18T14:45:36.953Z,35.18
2017-07-18T14:48:04.386Z,32.51
2017-07-18T14:50:32.170Z,34.69
2017-07-18T14:52:59.681Z,34.53
2017-07-18T14:55:27.111Z,35.68
2017-07-18T14:57:54.642Z,36.58
2017-07-18T15:00:22.074Z,33.72
2017-07-18T15:02:49.489Z,38.25
2017-07-18T15:05:16.987Z,34.38
2017-07-18T15:07:44.446Z,37.83
2017-07-18T15:10:11.855Z,34.54
2017-07-18T15:12:39.554Z,36.04
2017-07-18T15:15:07.004Z,38.89
2017-07-18T15:17:34.426Z,34.43
2017-07-18T15:20:01.988Z,35.11
2017-07-18T15:22:29.394Z,36.94
2017-07-18T15:24:56.810Z,34.81
2017-07-18T15:27:24.543Z,35.67
2017-07-18T15:29:52.736Z,37.32
2017-07-18T15:32:20.150Z,33.97
2017-07-18T15:34:47.584Z,34.47
2017-07-18T15:37:15.007Z,35.78
2017-07-18T15:39:42.430Z,37.31
2017-07-18T15:42:10.722Z,35.82
2017-07-18T15:44:38.131Z,36.69
2017-07-18T15:47:05.554Z,35.92
2017-07-18T15:49:33.470Z,35.16
2017-07-18T15:52:00.870Z,35.38
2017-07-18T15:54:28.282Z,39.06
2017-07-18T15:56:55.873Z,39.12
2017-07-18T15:59:23.290Z,38.43
2017-07-18T16:01:50.718Z,39.29
2017-07-18T16:04:18.390Z,40.06
2017-07-18T16:06:45.868Z,37.69
2017-07-18T16:09:13.274Z,36.94
2017-07-18T16:11:40.726Z,38.04
2017-07-18T16:14:08.164Z,37.04
2017-07-18T16:16:35.562Z,36.99
2017-07-18T16:19:03.335Z,37.37
2017-07-18T16:21:30.762Z,36.79
2017-07-18T16:23:58.214Z,38.97
2017-07-18T16:26:25.730Z,36.63
2017-07-18T16:28:53.141Z,39.25
2017-07-18T16:31:20.550Z,36.16
2017-07-18T16:33:47.986Z,36.84
2017-07-18T16:36:15.399Z,37.20
2017-07-18T16:38:42.812Z,38.17
2017-07-18T16:41:10.291Z,36.89
2017-07-18T16:43:37.694Z,38.51
2017-07-18T16:46:05.103Z,39.27
2017-07-18T16:48:32.676Z,39.80
2017-07-18T16:51:00.078Z,41.03
2017-07-18T16:53:27.498Z,38.12
2017-07-18T16:55:55.026Z,36.90
2017-07-18T16:58:22.445Z,40.53
2017-07-18T17:00:49.866Z,39.89
2017-07-18T17:03:17.432Z,37.75
2017-07-18T17:05:44.840Z,38.00
2017-07-18T17:08:12.259Z,40.67
2017-07-18T17:10:39.855Z,37.56
2017-07-18T17:13:07.278Z,37.30
2017-07-18T17:15:34.678Z,38.76
2017-07-18T17:18:02.138Z,40.46
2017-07-18T17:20:29.536Z,42.05
2017-07-18T17:22:56.947Z,40.78
2017-07-18T17:25:24.545Z,38.02
2017-07-18T17:27:51.961Z,39.28
2017-07-18T17:30:19.368Z,39.97
2017-07-18T17:32:46.822Z,42.91
2017-07-18T17:35:18.918Z,39.19
2017-07-18T17:37:46.330Z,42.85
2017-07-18T17:40:13.793Z,44.12
2017-07-18T17:42:41.202Z,44.57
2017-07-18T17:45:08.645Z,45.42
2017-07-18T17:47:36.066Z,46.08
2017-07-18T17:50:03.483Z,46.23
2017-07-18T17:52:31.004Z,46.36
2017-07-18T17:54:58.418Z,46.88
2017-07-18T17:57:25.835Z,46.17
2017-07-18T17:59:53.272Z,47.38
2017-07-18T18:02:21.729Z,46.97
2017-07-18T18:04:49.138Z,47.53
2017-07-18T18:07:17.037Z,47.71
2017-07-18T18:09:45.146Z,48.46
2017-07-18T18:12:13.427Z,49.40
2017-07-18T18:14:41.206Z,49.32
2017-07-18T18:17:08.619Z,49.04
2017-07-18T18:19:36.037Z,49.11
2017-07-18T18:22:03.806Z,47.24
2017-07-18T18:24:31.222Z,46.38
2017-07-18T18:26:58.630Z,47.29
2017-07-18T18:29:26.062Z,47.08
2017-07-18T18:31:53.489Z,48.56
2017-07-18T18:34:20.910Z,48.18
2017-07-18T18:36:48.563Z,48.58
2017-07-18T18:39:15.985Z,49.44
2017-07-18T18:41:43.399Z,49.77
2017-07-18T18:44:10.983Z,49.72
2017-07-18T18:46:38.402Z,50.64
2017-07-18T18:49:05.973Z,52.73
2017-07-18T18:51:33.461Z,51.46
2017-07-18T18:54:00.937Z,51.25
2017-07-18T18:56:28.352Z,49.66
2017-07-18T18:58:55.790Z,48.78
2017-07-18T19:01:23.224Z,47.75
2017-07-18T19:03:50.635Z,47.25
2017-07-18T19:06:18.204Z,48.56
2017-07-18T19:08:45.611Z,47.68
2017-07-18T19:11:13.024Z,49.77
2017-07-18T19:13:40.499Z,48.81
2017-07-18T19:16:07.914Z,48.45
2017-07-18T19:18:35.330Z,48.99
2017-07-18T19:21:02.935Z,47.48
2017-07-18T19:23:30.348Z,48.22
2017-07-18T19:26:04.150Z,49.37
2017-07-18T19:28:31.572Z,49.39
2017-07-18T19:30:58.995Z,48.71
2017-07-18T19:33:26.591Z,48.41
2017-07-18T19:35:54.015Z,49.04
2017-07-18T19:38:21.440Z,49.19
2017-07-18T19:40:48.874Z,49.03
2017-07-18T19:43:16.394Z,49.59
2017-07-18T19:45:43.933Z,49.64
2017-07-18T19:48:11.539Z,50.48
2017-07-18T19:50:38.974Z,49.92
2017-07-18T19:53:06.391Z,50.38
2017-07-18T19:55:34.086Z,49.85
2017-07-18T19:58:01.498Z,49.69
2017-07-18T20:00:28.923Z,50.04
2017-07-18T20:02:56.456Z,50.48
2017-07-18T20:05:23.870Z,50.41
2017-07-18T20:07:51.283Z,50.90
2017-07-18T20:10:18.886Z,50.56
2017-07-18T20:12:46.306Z,51.64
2017-07-18T20:15:13.726Z,51.19
2017-07-18T20:17:41.650Z,51.82
2017-07-18T20:20:09.073Z,51.71
2017-07-18T20:22:36.487Z,52.06
2017-07-18T20:25:04.252Z,52.15
2017-07-18T20:27:31.680Z,52.00
2017-07-18T20:29:59.094Z,51.95
2017-07-18T20:32:26.558Z,52.28
2017-07-18T20:34:53.978Z,52.78
2017-07-18T20:37:21.394Z,52.91
2017-07-18T20:39:48.943Z,53.27
2017-07-18T20:42:16.364Z,53.24
2017-07-18T20:44:43.841Z,53.02
2017-07-18T20:47:11.552Z,53.79
2017-07-18T20:49:38.974Z,53.78
2017-07-18T20:52:06.390Z,54.08
2017-07-18T20:54:34.335Z,54.39
2017-07-18T20:57:01.750Z,54.59
2017-07-18T20:59:29.171Z,55.15
2017-07-18T21:01:56.622Z,54.82
2017-07-18T21:04:24.042Z,55.15
2017-07-18T21:06:51.457Z,54.84
2017-07-18T21:09:19.298Z,55.23
2017-07-18T21:11:46.719Z,55.06
2017-07-18T21:14:14.136Z,55.58
2017-07-18T21:16:41.567Z,55.50
2017-07-18T21:19:08.982Z,56.11
2017-07-18T21:21:36.398Z,56.27
2017-07-18T21:24:04.026Z,56.22
2017-07-18T21:26:31.447Z,56.83
2017-07-18T21:28:58.862Z,56.68
2017-07-18T21:31:26.295Z,57.22
2017-07-18T21:33:53.710Z,57.48
2017-07-18T21:36:21.126Z,57.35
2017-07-18T21:38:48.659Z,57.72
2017-07-18T21:41:16.082Z,57.91
2017-07-18T21:43:43.499Z,58.23
2017-07-18T21:46:10.967Z,58.07
2017-07-18T21:48:38.378Z,57.90
2017-07-18T21:51:05.794Z,58.16
2017-07-18T21:53:33.253Z,58.55
2017-07-18T21:56:00.650Z,58.53
2017-07-18T21:58:28.066Z,58.81
2017-07-18T22:00:55.510Z,59.36
2017-07-18T22:03:22.923Z,58.85
2017-07-18T22:05:50.365Z,59.44
2017-07-18T22:08:17.882Z,59.47
2017-07-18T22:10:45.299Z,59.54
2017-07-18T22:13:12.713Z,59.64
2017-07-18T22:15:40.295Z,59.48
2017-07-18T22:18:07.715Z,59.65
2017-07-18T22:20:35.138Z,59.54
2017-07-18T22:23:02.715Z,59.67
2017-07-18T22:25:30.135Z,60.27
2017-07-18T22:27:57.550Z,59.61
2017-07-18T22:30:24.982Z,59.50
2017-07-18T22:32:52.400Z,59.73
2017-07-18T22:35:19.814Z,59.77
2017-07-18T22:37:47.745Z,59.49
2017-07-18T22:40:15.165Z,59.12
2017-07-18T22:42:42.583Z,58.76
2017-07-18T22:45:10.162Z,59.42
2017-07-18T22:47:37.579Z,59.05
2017-07-18T22:50:04.994Z,59.48
2017-07-18T22:52:32.666Z,59.50
2017-07-18T22:55:00.079Z,59.29
2017-07-18T22:57:27.493Z,59.37
2017-07-18T22:59:55.273Z,59.60
2017-07-18T23:02:22.695Z,59.83
2017-07-18T23:04:50.112Z,59.63
2017-07-18T23:07:17.851Z,59.78
2017-07-18T23:09:45.267Z,60.13
2017-07-18T23:12:12.681Z,60.00
2017-07-18T23:14:40.295Z,60.00
2017-07-18T23:17:07.713Z,60.28
2017-07-18T23:19:35.134Z,60.31
2017-07-18T23:22:02.862Z,60.39
2017-07-18T23:24:30.279Z,60.45
2017-07-18T23:26:57.694Z,60.56
2017-07-18T23:29:25.378Z,60.66
2017-07-18T23:31:52.795Z,60.11
2017-07-18T23:34:20.208Z,60.37
2017-07-18T23:36:47.954Z,61.03
2017-07-18T23:39:15.370Z,61.28
2017-07-18T23:41:42.789Z,61.46
2017-07-18T23:44:10.534Z,61.36
2017-07-18T23:46:37.954Z,60.81
2017-07-18T23:49:05.366Z,61.00
2017-07-18T23:51:32.910Z,61.10
2017-07-18T23:54:00.326Z,61.60
2017-07-18T23:56:27.738Z,61.59
2017-07-18T23:58:55.207Z,61.58
